createdAt,value
2023-02-24T00:02:47.855Z,6.00
2023-02-24T00:05:36.680Z,6.00
2023-02-24T00:08:24.398Z,8.00
2023-02-24T00:11:14.185Z,6.00
2023-02-24T00:14:02.294Z,6.00
2023-02-24T00:16:49.858Z,5.90
2023-02-24T00:19:39.552Z,6.00
2023-02-24T00:22:27.611Z,5.60
2023-02-24T00:25:16.140Z,5.50
2023-02-24T00:28:05.194Z,5.40
2023-02-24T00:30:52.819Z,5.50
2023-02-24T00:33:41.310Z,5.40
2023-02-24T00:36:33.931Z,5.50
2023-02-24T00:39:30.901Z,5.40
2023-02-24T00:42:18.933Z,5.50
2023-02-24T00:45:10.488Z,6.20
2023-02-24T00:47:59.015Z,6.00
2023-02-24T00:50:48.743Z,6.80
2023-02-24T00:53:38.544Z,5.30
2023-02-24T00:56:27.123Z,5.30
2023-02-24T00:59:16.104Z,5.30
2023-02-24T01:02:07.283Z,5.30
2023-02-24T01:04:55.124Z,5.20
2023-02-24T01:07:42.739Z,5.30
2023-02-24T01:10:35.504Z,5.20
2023-02-24T01:13:21.843Z,5.50
2023-02-24T01:16:09.670Z,5.40
2023-02-24T01:18:57.366Z,5.20
2023-02-24T01:21:47.425Z,5.30
2023-02-24T01:24:38.500Z,5.20
2023-02-24T01:27:28.568Z,8.10
2023-02-24T01:30:17.810Z,5.10
2023-02-24T01:33:08.434Z,5.10
2023-02-24T01:35:56.565Z,5.10
2023-02-24T01:38:46.563Z,5.00
2023-02-24T01:41:34.613Z,5.00
2023-02-24T01:44:44.254Z,5.00
2023-02-24T01:47:33.189Z,6.90
2023-02-24T01:50:27.994Z,4.90
2023-02-24T01:53:19.421Z,4.90
2023-02-24T01:56:07.901Z,4.90
2023-02-24T01:58:55.399Z,4.80
2023-02-24T02:01:46.552Z,5.00
2023-02-24T02:04:39.384Z,4.80
2023-02-24T02:07:28.319Z,4.80
2023-02-24T02:10:17.179Z,4.70
2023-02-24T02:13:04.810Z,4.70
2023-02-24T02:15:57.821Z,4.70
2023-02-24T02:18:56.503Z,4.60
2023-02-24T02:21:59.469Z,6.30
2023-02-24T02:24:54.150Z,4.60
2023-02-24T02:27:58.264Z,4.60
2023-02-24T02:31:03.186Z,4.80
2023-02-24T02:34:05.790Z,4.60
2023-02-24T02:36:57.442Z,4.70
2023-02-24T02:39:50.784Z,7.70
2023-02-24T02:42:41.285Z,4.60
2023-02-24T02:45:31.433Z,4.70
2023-02-24T02:48:21.621Z,4.70
2023-02-24T02:51:12.779Z,3.30
2023-02-24T02:54:02.089Z,6.00
2023-02-24T02:56:53.039Z,4.80
2023-02-24T02:59:43.924Z,4.60
2023-02-24T03:02:40.266Z,4.70
2023-02-24T03:05:31.281Z,4.70
2023-02-24T03:08:26.071Z,4.70
2023-02-24T03:11:15.131Z,4.70
2023-02-24T03:14:03.012Z,4.70
2023-02-24T03:16:51.760Z,4.70
2023-02-24T03:19:41.406Z,4.60
2023-02-24T03:22:35.087Z,4.70
2023-02-24T03:25:28.756Z,4.60
2023-02-24T03:28:22.699Z,4.60
2023-02-24T03:31:18.618Z,4.60
2023-02-24T03:34:11.664Z,4.50
2023-02-24T03:37:00.455Z,4.50
2023-02-24T03:39:53.482Z,4.60
2023-02-24T03:42:46.400Z,4.50
2023-02-24T03:45:38.150Z,4.60
2023-02-24T03:48:27.366Z,4.50
2023-02-24T03:51:19.030Z,4.50
2023-02-24T03:54:14.725Z,4.50
2023-02-24T03:57:10.299Z,4.80
2023-02-24T04:00:20.703Z,4.70
2023-02-24T04:03:12.972Z,4.50
2023-02-24T04:06:08.417Z,4.70
2023-02-24T04:09:06.120Z,4.50
2023-02-24T04:12:03.094Z,4.60
2023-02-24T04:14:57.033Z,4.40
2023-02-24T04:17:47.860Z,4.40
2023-02-24T04:20:37.752Z,4.40
2023-02-24T04:23:28.162Z,4.30
2023-02-24T04:26:17.319Z,2.10
2023-02-24T04:29:05.765Z,4.20
2023-02-24T04:31:57.398Z,4.10
2023-02-24T04:34:47.267Z,4.00
2023-02-24T04:37:39.830Z,3.90
2023-02-24T04:40:27.503Z,3.60
2023-02-24T04:43:15.852Z,3.70
2023-02-24T04:46:08.007Z,2.50
2023-02-24T04:48:57.385Z,3.50
2023-02-24T04:51:47.112Z,3.40
2023-02-24T04:54:35.032Z,3.80
2023-02-24T04:57:24.144Z,3.50
2023-02-24T05:00:21.105Z,3.30
2023-02-24T05:03:12.463Z,3.10
2023-02-24T05:06:06.472Z,3.10
2023-02-24T05:08:55.981Z,2.90
2023-02-24T05:11:44.288Z,2.80
2023-02-24T05:14:32.581Z,2.70
2023-02-24T05:17:21.186Z,2.80
2023-02-24T05:20:28.097Z,2.40
2023-02-24T05:23:17.385Z,3.80
2023-02-24T05:26:09.270Z,2.60
2023-02-24T05:28:59.925Z,2.30
2023-02-24T05:31:48.186Z,2.40
2023-02-24T05:34:39.486Z,2.40
2023-02-24T05:37:27.952Z,2.40
2023-02-24T05:40:21.247Z,2.30
2023-02-24T05:43:15.934Z,2.30
2023-02-24T05:46:04.713Z,2.30
2023-02-24T05:48:52.815Z,2.20
2023-02-24T05:51:43.696Z,2.20
2023-02-24T05:54:32.617Z,3.20
2023-02-24T05:57:25.979Z,2.00
2023-02-24T06:00:17.271Z,2.10
2023-02-24T06:03:08.881Z,1.90
2023-02-24T06:06:01.877Z,1.90
2023-02-24T06:08:54.027Z,1.90
2023-02-24T06:11:42.750Z,1.90
2023-02-24T06:14:31.123Z,2.10
2023-02-24T06:17:20.215Z,2.30
2023-02-24T06:20:15.313Z,2.60
2023-02-24T06:23:05.443Z,2.80
2023-02-24T06:25:58.912Z,5.30
2023-02-24T06:28:47.320Z,3.10
2023-02-24T06:31:38.551Z,3.30
2023-02-24T06:34:27.985Z,3.00
2023-02-24T06:37:16.453Z,3.00
2023-02-24T06:40:15.974Z,2.80
2023-02-24T06:43:03.520Z,2.70
2023-02-24T06:45:51.969Z,2.50
2023-02-24T06:48:40.133Z,3.80
2023-02-24T06:51:30.433Z,2.50
2023-02-24T06:54:22.620Z,2.50
2023-02-24T06:57:13.042Z,2.40
2023-02-24T07:00:00.440Z,2.40
2023-02-24T07:02:48.920Z,2.40
2023-02-24T07:05:36.859Z,2.40
2023-02-24T07:08:27.579Z,2.30
2023-02-24T07:11:17.903Z,2.30
2023-02-24T07:14:06.848Z,2.30
2023-02-24T07:16:58.603Z,2.30
2023-02-24T07:19:46.922Z,3.10
2023-02-24T07:22:35.055Z,4.80
2023-02-24T07:25:33.583Z,2.40
2023-02-24T07:28:23.082Z,5.00
2023-02-24T07:31:12.207Z,2.30
2023-02-24T07:34:02.386Z,2.60
2023-02-24T07:36:53.152Z,2.70
2023-02-24T07:39:43.315Z,2.60
2023-02-24T07:42:35.620Z,2.70
2023-02-24T07:45:26.493Z,2.60
2023-02-24T07:48:15.099Z,2.70
2023-02-24T07:51:02.757Z,2.80
2023-02-24T07:53:53.154Z,4.30
2023-02-24T07:56:46.255Z,2.90
2023-02-24T07:59:38.148Z,5.20
2023-02-24T08:02:27.088Z,3.10
2023-02-24T08:05:15.503Z,3.60
2023-02-24T08:08:03.473Z,4.60
2023-02-24T08:10:56.343Z,3.40
2023-02-24T08:13:45.075Z,3.50
2023-02-24T08:16:39.968Z,3.50
2023-02-24T08:19:32.937Z,3.50
2023-02-24T08:22:24.501Z,3.50
2023-02-24T08:25:19.197Z,3.50
2023-02-24T08:28:11.880Z,4.00
2023-02-24T08:31:00.696Z,3.90
2023-02-24T08:33:49.792Z,6.50
2023-02-24T08:36:37.870Z,4.10
2023-02-24T08:39:30.429Z,4.30
2023-02-24T08:42:18.336Z,4.20
2023-02-24T08:45:06.393Z,4.60
2023-02-24T08:48:00.705Z,3.70
2023-02-24T08:50:57.520Z,4.70
2023-02-24T08:53:49.181Z,5.20
2023-02-24T08:56:48.814Z,3.60
2023-02-24T08:59:48.617Z,4.80
2023-02-24T09:02:40.619Z,4.90
2023-02-24T09:05:33.709Z,5.10
2023-02-24T09:08:24.476Z,5.10
2023-02-24T09:11:14.106Z,5.20
2023-02-24T09:14:01.725Z,5.20
2023-02-24T09:17:11.950Z,5.20
2023-02-24T09:20:44.537Z,5.20
2023-02-24T09:23:46.257Z,5.20
2023-02-24T09:26:43.421Z,5.20
2023-02-24T09:29:49.411Z,7.50
2023-02-24T09:32:37.219Z,5.30
2023-02-24T09:35:31.327Z,5.80
2023-02-24T09:38:21.063Z,5.40
2023-02-24T09:41:33.081Z,5.60
2023-02-24T09:44:25.592Z,5.90
2023-02-24T09:47:19.878Z,6.00
2023-02-24T09:50:32.965Z,6.10
2023-02-24T09:53:31.331Z,6.10
2023-02-24T09:56:25.569Z,6.70
2023-02-24T09:59:26.571Z,6.40
2023-02-24T10:02:20.198Z,5.80
2023-02-24T10:05:12.801Z,6.30
2023-02-24T10:08:01.856Z,7.20
2023-02-24T10:11:07.327Z,6.50
2023-02-24T10:14:07.180Z,6.80
2023-02-24T10:17:10.273Z,6.80
2023-02-24T10:20:14.072Z,9.00
2023-02-24T10:23:09.840Z,6.60
2023-02-24T10:26:07.150Z,7.80
2023-02-24T10:29:00.658Z,6.40
2023-02-24T10:31:57.971Z,6.30
2023-02-24T10:34:49.445Z,6.00
2023-02-24T10:37:37.688Z,6.30
2023-02-24T10:40:33.993Z,7.40
2023-02-24T10:43:30.475Z,6.20
2023-02-24T10:46:42.622Z,6.10
2023-02-24T10:49:33.878Z,6.10
2023-02-24T10:52:37.212Z,6.30
2023-02-24T10:55:39.456Z,6.10
2023-02-24T10:58:44.966Z,7.30
2023-02-24T11:01:55.172Z,6.50
2023-02-24T11:05:25.205Z,6.70
2023-02-24T11:08:36.894Z,6.70
2023-02-24T11:11:30.037Z,6.60
2023-02-24T11:14:35.648Z,6.90
2023-02-24T11:17:28.283Z,6.90
2023-02-24T11:20:20.952Z,7.20
2023-02-24T11:23:15.039Z,7.30
2023-02-24T11:26:04.830Z,7.30
2023-02-24T11:29:04.183Z,7.70
2023-02-24T11:32:03.644Z,6.70
2023-02-24T11:34:58.256Z,7.10
2023-02-24T11:37:47.964Z,7.20
2023-02-24T11:40:38.680Z,7.30
2023-02-24T11:43:28.425Z,7.90
2023-02-24T11:46:21.868Z,6.60
2023-02-24T11:49:16.157Z,10.60
2023-02-24T11:52:06.195Z,7.90
2023-02-24T11:55:01.047Z,7.80
2023-02-24T11:57:51.394Z,8.00
2023-02-24T12:00:42.463Z,7.60
2023-02-24T12:03:34.926Z,7.50
2023-02-24T12:06:28.808Z,7.50
2023-02-24T12:09:20.308Z,7.70
2023-02-24T12:12:13.397Z,7.50
2023-02-24T12:15:04.373Z,7.50
2023-02-24T12:17:59.368Z,7.90
2023-02-24T12:20:50.080Z,7.60
2023-02-24T12:23:39.583Z,7.80
2023-02-24T12:26:42.939Z,8.70
2023-02-24T12:29:42.752Z,7.60
2023-02-24T12:32:36.040Z,7.60
2023-02-24T12:35:28.167Z,8.10
2023-02-24T12:38:30.782Z,7.70
2023-02-24T12:41:40.501Z,10.20
2023-02-24T12:44:33.154Z,7.70
2023-02-24T12:47:24.988Z,7.60
2023-02-24T12:50:25.423Z,7.50
2023-02-24T12:53:19.005Z,7.60
2023-02-24T12:56:11.828Z,7.60
2023-02-24T12:59:06.714Z,8.00
2023-02-24T13:02:00.350Z,8.40
2023-02-24T13:04:55.117Z,7.60
2023-02-24T13:07:51.080Z,5.70
2023-02-24T13:10:46.024Z,7.70
2023-02-24T13:13:37.461Z,7.80
2023-02-24T13:16:31.074Z,9.50
2023-02-24T13:19:23.241Z,8.00
2023-02-24T13:22:22.901Z,7.90
2023-02-24T13:25:21.812Z,7.70
2023-02-24T13:28:23.769Z,7.80
2023-02-24T13:31:15.766Z,7.70
2023-02-24T13:34:14.138Z,7.60
2023-02-24T13:37:04.442Z,7.60
2023-02-24T13:39:52.600Z,7.70
2023-02-24T13:42:40.144Z,7.70
2023-02-24T13:45:30.563Z,7.60
2023-02-24T13:48:37.006Z,7.70
2023-02-24T13:51:46.947Z,7.50
2023-02-24T13:54:50.515Z,8.00
2023-02-24T13:57:54.642Z,7.00
2023-02-24T14:00:53.690Z,6.70
2023-02-24T14:03:43.067Z,6.40
2023-02-24T14:06:30.570Z,6.30
2023-02-24T14:09:27.061Z,6.20
2023-02-24T14:12:16.905Z,6.30
2023-02-24T14:15:07.225Z,5.40
2023-02-24T14:17:59.821Z,6.40
2023-02-24T14:20:47.435Z,6.40
2023-02-24T14:23:40.508Z,6.90
2023-02-24T14:26:32.157Z,6.40
2023-02-24T14:29:25.827Z,6.40
2023-02-24T14:32:20.033Z,6.70
2023-02-24T14:35:08.197Z,6.50
2023-02-24T14:37:56.558Z,6.80
2023-02-24T14:40:48.901Z,6.80
2023-02-24T14:43:44.399Z,7.50
2023-02-24T14:46:47.561Z,7.90
2023-02-24T14:49:36.735Z,6.20
2023-02-24T14:52:30.260Z,6.10
2023-02-24T14:55:19.925Z,6.40
2023-02-24T14:58:11.115Z,6.00
2023-02-24T15:01:02.988Z,6.10
2023-02-24T15:03:52.441Z,5.80
2023-02-24T15:06:43.133Z,6.60
2023-02-24T15:09:34.445Z,5.80
2023-02-24T15:12:29.152Z,5.60
2023-02-24T15:15:21.781Z,5.80
2023-02-24T15:18:13.934Z,5.90
2023-02-24T15:21:02.792Z,6.30
2023-02-24T15:23:53.240Z,5.70
2023-02-24T15:26:43.489Z,5.60
2023-02-24T15:29:32.453Z,6.00
2023-02-24T15:32:22.521Z,5.90
2023-02-24T15:35:24.647Z,5.70
2023-02-24T15:38:22.869Z,6.80
2023-02-24T15:41:11.335Z,6.00
2023-02-24T15:43:59.161Z,5.80
2023-02-24T15:46:47.032Z,4.70
2023-02-24T15:49:35.330Z,5.90
2023-02-24T15:52:25.881Z,6.10
2023-02-24T15:55:16.504Z,5.90
2023-02-24T15:58:05.308Z,6.10
2023-02-24T16:00:53.790Z,6.00
2023-02-24T16:03:41.837Z,6.00
2023-02-24T16:06:34.152Z,5.90
2023-02-24T16:09:28.237Z,6.00
2023-02-24T16:12:18.532Z,7.80
2023-02-24T16:15:09.342Z,6.10
2023-02-24T16:17:57.861Z,6.20
2023-02-24T16:20:48.958Z,6.10
2023-02-24T16:23:42.999Z,6.20
2023-02-24T16:26:38.752Z,6.60
2023-02-24T16:29:26.854Z,6.20
2023-02-24T16:32:15.141Z,6.20
2023-02-24T16:35:08.443Z,6.20
2023-02-24T16:37:56.941Z,6.30
2023-02-24T16:40:46.161Z,6.30
2023-02-24T16:43:37.899Z,6.10
2023-02-24T16:46:29.448Z,9.00
2023-02-24T16:49:19.290Z,6.30
2023-02-24T16:52:07.233Z,6.30
2023-02-24T16:54:54.687Z,6.30
2023-02-24T16:57:43.102Z,6.30
2023-02-24T17:00:31.965Z,6.50
2023-02-24T17:03:21.577Z,6.40
2023-02-24T17:06:09.891Z,6.30
2023-02-24T17:08:59.176Z,6.30
2023-02-24T17:11:46.943Z,6.30
2023-02-24T17:14:35.362Z,6.20
2023-02-24T17:17:25.099Z,6.10
2023-02-24T17:20:13.792Z,4.90
2023-02-24T17:23:03.993Z,6.30
2023-02-24T17:25:53.948Z,5.90
2023-02-24T17:28:42.017Z,6.00
2023-02-24T17:31:31.969Z,6.50
2023-02-24T17:34:24.163Z,7.10
2023-02-24T17:37:15.167Z,6.30
2023-02-24T17:40:03.532Z,5.70
2023-02-24T17:42:52.768Z,5.90
2023-02-24T17:45:44.575Z,5.70
2023-02-24T17:48:32.801Z,5.60
2023-02-24T17:51:22.577Z,7.20
2023-02-24T17:54:13.084Z,4.00
2023-02-24T17:57:01.121Z,5.80
2023-02-24T17:59:49.584Z,5.80
2023-02-24T18:02:38.675Z,5.50
2023-02-24T18:05:27.176Z,5.70
2023-02-24T18:08:16.622Z,5.80
2023-02-24T18:11:05.377Z,5.80
2023-02-24T18:13:55.422Z,5.80
2023-02-24T18:16:44.434Z,5.80
2023-02-24T18:19:31.787Z,5.90
2023-02-24T18:22:19.299Z,6.00
2023-02-24T18:25:08.636Z,5.70
2023-02-24T18:27:56.775Z,5.60
2023-02-24T18:30:44.705Z,5.40
2023-02-24T18:33:36.372Z,5.40
2023-02-24T18:36:24.672Z,3.20
2023-02-24T18:39:14.677Z,5.60
2023-02-24T18:42:04.320Z,5.60
2023-02-24T18:44:55.308Z,6.80
2023-02-24T18:47:43.634Z,6.20
2023-02-24T18:50:31.586Z,8.20
2023-02-24T18:53:19.875Z,5.60
2023-02-24T18:56:09.005Z,5.60
2023-02-24T18:59:02.171Z,2.80
2023-02-24T19:01:51.604Z,5.70
2023-02-24T19:04:39.904Z,5.70
2023-02-24T19:07:28.040Z,5.60
2023-02-24T19:10:16.206Z,5.50
2023-02-24T19:13:06.807Z,5.40
2023-02-24T19:15:55.839Z,5.20
2023-02-24T19:18:43.442Z,6.90
2023-02-24T19:21:31.899Z,5.10
2023-02-24T19:24:20.187Z,5.20
2023-02-24T19:27:08.837Z,6.60
2023-02-24T19:29:58.440Z,5.30
2023-02-24T19:32:47.484Z,5.30
2023-02-24T19:35:35.590Z,6.80
2023-02-24T19:38:23.354Z,5.20
2023-02-24T19:41:11.825Z,5.20
2023-02-24T19:43:59.047Z,5.30
2023-02-24T19:46:49.132Z,5.40
2023-02-24T19:49:44.164Z,5.40
2023-02-24T19:52:32.338Z,5.40
2023-02-24T19:55:21.903Z,5.60
2023-02-24T19:58:09.574Z,5.60
2023-02-24T20:00:57.163Z,5.40
2023-02-24T20:03:44.978Z,5.30
2023-02-24T20:06:35.903Z,5.10
2023-02-24T20:09:24.363Z,4.70
2023-02-24T20:12:13.244Z,5.10
2023-02-24T20:15:02.237Z,5.00
2023-02-24T20:17:51.551Z,4.90
2023-02-24T20:20:39.799Z,4.90
2023-02-24T20:23:29.123Z,4.90
2023-02-24T20:26:17.402Z,5.30
2023-02-24T20:29:06.072Z,5.10
2023-02-24T20:31:54.778Z,5.10
2023-02-24T20:34:43.366Z,6.30
2023-02-24T20:37:31.089Z,6.80
2023-02-24T20:40:20.757Z,6.50
2023-02-24T20:43:10.236Z,4.90
2023-02-24T20:45:57.734Z,4.90
2023-02-24T20:48:46.046Z,4.90
2023-02-24T20:51:35.860Z,4.60
2023-02-24T20:54:24.654Z,4.70
2023-02-24T20:57:13.977Z,4.70
2023-02-24T21:00:08.058Z,4.50
2023-02-24T21:02:58.408Z,4.50
2023-02-24T21:05:46.396Z,4.50
2023-02-24T21:08:34.527Z,4.20
2023-02-24T21:11:22.849Z,4.30
2023-02-24T21:14:17.145Z,4.30
2023-02-24T21:17:05.726Z,4.30
2023-02-24T21:19:54.005Z,4.40
2023-02-24T21:22:42.044Z,4.40
2023-02-24T21:25:29.754Z,4.40
2023-02-24T21:28:25.184Z,4.40
2023-02-24T21:31:15.391Z,4.40
2023-02-24T21:34:03.975Z,4.40
2023-02-24T21:36:51.728Z,4.40
2023-02-24T21:39:39.986Z,4.10
2023-02-24T21:42:31.248Z,5.20
2023-02-24T21:45:20.199Z,4.20
2023-02-24T21:48:09.674Z,4.20
2023-02-24T21:51:03.642Z,4.20
2023-02-24T21:53:55.165Z,4.20
2023-02-24T21:56:43.223Z,4.20
2023-02-24T21:59:31.035Z,4.20
2023-02-24T22:02:21.381Z,4.20
2023-02-24T22:05:11.226Z,4.30
2023-02-24T22:07:58.788Z,4.30
2023-02-24T22:10:47.534Z,4.40
2023-02-24T22:13:35.197Z,4.40
2023-02-24T22:16:24.173Z,4.40
2023-02-24T22:19:11.852Z,4.30
2023-02-24T22:22:03.265Z,4.20
2023-02-24T22:24:52.508Z,4.10
2023-02-24T22:27:43.295Z,4.10
2023-02-24T22:30:30.864Z,4.00
2023-02-24T22:33:18.986Z,4.00
2023-02-24T22:36:08.791Z,3.90
2023-02-24T22:38:58.468Z,3.90
2023-02-24T22:41:47.639Z,3.90
2023-02-24T22:44:35.974Z,3.90
2023-02-24T22:47:24.266Z,3.80
2023-02-24T22:50:12.849Z,3.90
2023-02-24T22:53:00.719Z,3.90
2023-02-24T22:55:50.425Z,3.90
2023-02-24T22:58:38.813Z,3.90
2023-02-24T23:01:27.894Z,3.80
2023-02-24T23:04:17.202Z,3.80
2023-02-24T23:07:05.016Z,5.00
2023-02-24T23:09:53.571Z,3.90
2023-02-24T23:12:44.003Z,4.00
2023-02-24T23:15:32.401Z,4.10
2023-02-24T23:18:21.580Z,4.00
2023-02-24T23:21:10.034Z,3.90
2023-02-24T23:23:58.090Z,3.80
2023-02-24T23:26:47.033Z,3.70
2023-02-24T23:29:35.996Z,3.60
2023-02-24T23:32:24.229Z,3.50
2023-02-24T23:35:13.108Z,3.40
2023-02-24T23:38:01.433Z,3.30
2023-02-24T23:40:50.937Z,3.30
2023-02-24T23:43:39.175Z,3.40
2023-02-24T23:46:28.964Z,3.50
2023-02-24T23:49:17.779Z,3.30
2023-02-24T23:52:05.849Z,3.30
2023-02-24T23:54:57.247Z,3.30
2023-02-24T23:57:44.781Z,3.20
